KPOU/POU METAR and TAF weather

Enter ICAO airport designator
Station Type Date Time Source
KPOU METAR 2020/01/23 17:53 UTC NOAA

KPOU 231753Z 23004KT 10SM CLR 03/M08 A3035 RMK AO2 SLP277 T00331083 10033 21111 58019


Station Type Date Time Source
KPOU Decoded METAR 2020/01/23 17:53 UTC NOAA

POUGHKEEPSIE DUTCHESS CTY, NY, United States (KPOU) 41-38N 073-53W 46M
Jan 23, 2020 - 12:53 PM EST / 2020.01.23 1753 UTC
Wind: from the SW (230 degrees) at 5 MPH (4 KT):0
Visibility: 10 mile(s):0
Sky conditions: clear
Temperature: 37.9 F (3.3 C)
Dew Point: 17.1 F (-8.3 C)
Relative Humidity: 42%
Pressure (altimeter): 30.35 in. Hg (1027 hPa)
Pressure tendency: 0.06 inches (1.9 hPa) lower than three hours ago
ob: KPOU 231753Z 23004KT 10SM CLR 03/M08 A3035 RMK AO2 SLP277 T00331083 10033 21111 58019
cycle: 18

Station Type Date Time Source
KPOU TAF 2020/01/23 18:30 UTC NOAA

TAF KPOU 231728Z 2318/2418 26003KT P6SM BKN260
FM240000 17002KT P6SM OVC150
FM241000 13002KT P6SM SKC

Example: see airport list